createdAt,value
2022-08-07T00:02:37.155Z,4.67
2022-08-07T00:07:27.370Z,4.90
2022-08-07T00:12:31.745Z,5.50
2022-08-07T00:17:37.114Z,6.23
2022-08-07T00:22:42.701Z,5.87
2022-08-07T00:27:56.504Z,5.23
2022-08-07T00:33:02.681Z,5.17
2022-08-07T00:38:06.534Z,5.43
2022-08-07T00:43:59.621Z,4.97
2022-08-07T00:48:35.745Z,5.00
2022-08-07T00:53:50.404Z,5.00
2022-08-07T00:58:59.137Z,4.93
2022-08-07T01:04:07.419Z,5.57
2022-08-07T01:09:11.502Z,6.07
2022-08-07T01:14:36.966Z,6.20
2022-08-07T01:19:44.981Z,4.90
2022-08-07T01:24:59.837Z,4.53
2022-08-07T01:30:03.926Z,5.30
2022-08-07T01:35:09.154Z,4.80
2022-08-07T01:40:15.673Z,4.80
2022-08-07T01:45:22.919Z,4.33
2022-08-07T01:50:31.139Z,4.00
2022-08-07T01:55:39.842Z,4.53
2022-08-07T02:00:49.044Z,4.10
2022-08-07T02:06:01.078Z,3.90
2022-08-07T02:11:06.577Z,3.37
2022-08-07T02:16:14.717Z,3.77
2022-08-07T02:21:20.917Z,3.73
2022-08-07T02:26:33.974Z,4.13
2022-08-07T02:31:40.395Z,4.20
2022-08-07T02:36:45.343Z,4.40
2022-08-07T02:41:54.759Z,4.17
2022-08-07T02:46:59.527Z,3.90
2022-08-07T02:52:10.022Z,3.17
2022-08-07T02:57:20.469Z,3.70
2022-08-07T03:02:25.873Z,3.50
2022-08-07T03:08:05.341Z,3.20
2022-08-07T03:12:57.293Z,3.20
2022-08-07T03:18:03.428Z,3.33
2022-08-07T03:23:18.885Z,3.10
2022-08-07T03:28:38.024Z,3.33
2022-08-07T03:33:42.467Z,3.20
2022-08-07T03:38:46.974Z,2.90
2022-08-07T03:43:56.733Z,3.13
2022-08-07T03:49:02.795Z,3.20
2022-08-07T03:54:36.485Z,3.10
2022-08-07T03:59:32.813Z,3.30
2022-08-07T04:04:36.331Z,2.90
2022-08-07T04:09:45.522Z,2.93
2022-08-07T04:14:56.243Z,2.77
2022-08-07T04:19:59.508Z,3.00
2022-08-07T04:25:08.647Z,2.90
2022-08-07T04:30:36.275Z,2.50
2022-08-07T04:35:40.779Z,2.90
2022-08-07T04:40:51.722Z,2.70
2022-08-07T04:46:08.325Z,2.30
2022-08-07T04:51:27.698Z,2.10
2022-08-07T04:58:12.230Z,2.60
2022-08-07T05:02:11.241Z,1.90
2022-08-07T05:07:30.473Z,2.20
2022-08-07T05:12:53.775Z,2.30
2022-08-07T05:18:08.819Z,1.97
2022-08-07T05:23:17.574Z,2.00
2022-08-07T05:28:26.619Z,1.70
2022-08-07T05:33:35.327Z,1.70
2022-08-07T05:39:00.867Z,1.80
2022-08-07T05:44:12.784Z,1.77
2022-08-07T05:49:18.053Z,1.57
2022-08-07T05:54:44.407Z,1.43
2022-08-07T05:59:57.971Z,1.70
2022-08-07T06:05:06.130Z,1.60
2022-08-07T06:10:15.498Z,1.47
2022-08-07T06:15:20.327Z,1.60
2022-08-07T06:20:49.913Z,1.60
2022-08-07T06:25:54.894Z,1.50
2022-08-07T06:31:00.254Z,1.30
2022-08-07T06:36:06.655Z,1.27
2022-08-07T06:42:02.123Z,1.40
2022-08-07T06:47:12.411Z,1.37
2022-08-07T06:52:31.683Z,1.20
2022-08-07T06:57:48.320Z,1.47
2022-08-07T07:03:01.144Z,1.40
2022-08-07T07:08:18.186Z,1.40
2022-08-07T07:13:55.582Z,1.17
2022-08-07T07:18:57.026Z,1.27
2022-08-07T07:24:11.033Z,1.40
2022-08-07T07:29:39.250Z,1.17
2022-08-07T07:34:46.512Z,1.70
2022-08-07T07:39:58.303Z,1.47
2022-08-07T07:45:04.680Z,1.17
2022-08-07T07:50:35.392Z,1.40
2022-08-07T07:55:37.557Z,1.30
2022-08-07T08:00:54.064Z,1.47
2022-08-07T08:05:57.778Z,1.53
2022-08-07T08:11:03.828Z,1.33
2022-08-07T08:16:12.751Z,1.40
2022-08-07T08:22:00.478Z,1.27
2022-08-07T08:27:09.669Z,1.20
2022-08-07T08:32:18.970Z,1.20
2022-08-07T08:38:01.485Z,1.30
2022-08-07T08:43:04.744Z,1.30
2022-08-07T08:48:28.461Z,1.30
2022-08-07T08:53:43.579Z,1.20
2022-08-07T08:58:57.065Z,1.30
2022-08-07T09:04:11.204Z,1.40
2022-08-07T09:09:39.122Z,1.30
2022-08-07T09:14:58.563Z,1.10
2022-08-07T09:20:34.648Z,1.20
2022-08-07T09:25:53.522Z,1.20
2022-08-07T09:31:04.821Z,1.00
2022-08-07T09:36:15.631Z,1.27
2022-08-07T09:41:36.152Z,1.30
2022-08-07T09:47:51.425Z,1.23
2022-08-07T09:52:35.423Z,1.17
2022-08-07T09:58:32.567Z,1.33
2022-08-07T10:04:05.498Z,1.20
2022-08-07T10:09:42.739Z,1.60
2022-08-07T10:15:15.504Z,1.03
2022-08-07T10:20:32.009Z,1.40
2022-08-07T10:25:55.072Z,1.30
2022-08-07T10:31:11.932Z,1.17
2022-08-07T10:36:29.709Z,1.20
2022-08-07T10:41:52.083Z,1.07
2022-08-07T10:47:03.017Z,1.10
2022-08-07T10:52:19.814Z,1.10
2022-08-07T10:57:34.637Z,1.40
2022-08-07T11:02:49.341Z,1.30
2022-08-07T11:08:06.389Z,1.00
2022-08-07T11:14:41.830Z,1.03
2022-08-07T11:18:43.856Z,1.00
2022-08-07T11:24:02.968Z,1.10
2022-08-07T11:29:12.911Z,1.10
2022-08-07T11:34:42.563Z,1.10
2022-08-07T11:40:11.920Z,1.17
2022-08-07T11:45:35.376Z,1.00
2022-08-07T11:50:58.205Z,1.10
2022-08-07T11:56:27.102Z,0.93
2022-08-07T12:01:59.498Z,1.00
2022-08-07T12:07:20.233Z,0.97
2022-08-07T12:12:37.496Z,1.00
2022-08-07T12:17:58.476Z,1.00
2022-08-07T12:23:37.434Z,1.00
2022-08-07T12:28:57.976Z,0.90
2022-08-07T12:34:04.044Z,1.10
2022-08-07T12:39:38.819Z,0.90
2022-08-07T12:44:35.833Z,1.10
2022-08-07T12:49:51.693Z,1.03
2022-08-07T12:55:05.705Z,1.03
2022-08-07T13:00:20.941Z,1.13
2022-08-07T13:06:02.550Z,1.20
2022-08-07T13:11:22.374Z,1.10
2022-08-07T13:16:36.960Z,1.00
2022-08-07T13:21:58.912Z,1.00
2022-08-07T13:27:12.948Z,1.10
2022-08-07T13:32:32.619Z,0.90
2022-08-07T13:37:55.354Z,1.10
2022-08-07T13:43:06.522Z,0.90
2022-08-07T13:48:27.431Z,1.03
2022-08-07T13:53:59.481Z,1.03
2022-08-07T13:59:05.834Z,0.90
2022-08-07T14:04:21.487Z,0.90
2022-08-07T14:10:01.509Z,0.90
2022-08-07T14:15:01.656Z,0.90
2022-08-07T14:20:41.190Z,1.00
2022-08-07T14:25:39.449Z,1.00
2022-08-07T14:30:52.228Z,1.00
2022-08-07T14:35:59.476Z,1.07
2022-08-07T14:41:14.829Z,0.90
2022-08-07T14:46:30.599Z,1.10
2022-08-07T14:52:04.656Z,1.00
2022-08-07T14:57:04.254Z,1.00
2022-08-07T15:02:34.249Z,1.00
2022-08-07T15:07:47.292Z,0.97
2022-08-07T15:12:59.278Z,1.00
2022-08-07T15:18:14.384Z,1.00
2022-08-07T15:25:15.836Z,1.00
2022-08-07T15:30:06.419Z,1.00
2022-08-07T15:34:26.237Z,0.90
2022-08-07T15:44:57.047Z,1.00
2022-08-07T15:50:06.770Z,1.10
2022-08-07T15:55:15.598Z,1.00
2022-08-07T16:00:31.967Z,1.00
2022-08-07T16:05:40.198Z,1.00
2022-08-07T16:10:48.998Z,1.00
2022-08-07T16:16:06.463Z,1.07
2022-08-07T16:21:44.171Z,1.07
2022-08-07T16:26:59.139Z,1.10
2022-08-07T16:32:06.325Z,1.03
2022-08-07T16:38:03.478Z,1.10
2022-08-07T16:43:05.069Z,1.00
2022-08-07T16:49:03.947Z,1.30
2022-08-07T16:54:32.828Z,0.90
2022-08-07T16:59:51.876Z,1.30
2022-08-07T17:06:01.504Z,1.10
2022-08-07T17:10:54.978Z,1.10
2022-08-07T17:16:06.888Z,1.20
2022-08-07T17:21:19.061Z,1.30
2022-08-07T17:26:48.206Z,1.27
2022-08-07T17:32:06.227Z,1.20
2022-08-07T17:38:06.475Z,1.50
2022-08-07T17:42:58.615Z,1.50
2022-08-07T17:48:12.795Z,1.80
2022-08-07T17:54:01.142Z,1.47
2022-08-07T17:59:06.884Z,2.20
2022-08-07T18:04:24.710Z,1.80
2022-08-07T18:09:48.239Z,1.50
2022-08-07T18:15:08.986Z,1.90
2022-08-07T18:21:09.766Z,1.77
2022-08-07T18:25:47.922Z,1.90
2022-08-07T18:30:59.846Z,1.87
2022-08-07T18:36:16.111Z,2.00
2022-08-07T18:41:45.207Z,1.97
2022-08-07T18:47:00.185Z,1.80
2022-08-07T18:52:37.613Z,1.60
2022-08-07T18:58:18.448Z,1.90
2022-08-07T19:03:35.451Z,1.80
2022-08-07T19:08:59.852Z,1.70
2022-08-07T19:14:20.258Z,1.60
2022-08-07T19:19:34.032Z,1.50
2022-08-07T19:24:44.377Z,1.70
2022-08-07T19:31:05.485Z,1.80
2022-08-07T19:35:22.561Z,1.70
2022-08-07T19:40:34.824Z,1.60
2022-08-07T19:46:05.379Z,1.87
2022-08-07T19:51:19.327Z,1.70
2022-08-07T19:57:56.728Z,2.03
2022-08-07T20:01:58.032Z,1.67
2022-08-07T20:07:02.338Z,1.80
2022-08-07T20:12:31.764Z,1.80
2022-08-07T20:17:35.889Z,1.80
2022-08-07T20:22:47.097Z,1.90
2022-08-07T20:27:58.614Z,2.10
2022-08-07T20:33:05.062Z,2.00
2022-08-07T20:38:15.241Z,2.00
2022-08-07T20:43:25.955Z,1.90
2022-08-07T20:48:34.034Z,2.00
2022-08-07T20:54:04.653Z,1.70
2022-08-07T20:59:06.060Z,2.00
2022-08-07T21:04:30.773Z,1.93
2022-08-07T21:09:52.845Z,1.93
2022-08-07T21:15:06.548Z,1.90
2022-08-07T21:20:18.909Z,2.00
2022-08-07T21:25:38.739Z,2.20
2022-08-07T21:30:55.241Z,2.10
2022-08-07T21:36:12.019Z,2.00
2022-08-07T21:42:00.662Z,2.30
2022-08-07T21:47:17.214Z,2.17
2022-08-07T21:52:33.346Z,2.20
2022-08-07T21:57:52.018Z,2.20
2022-08-07T22:03:05.607Z,2.20
2022-08-07T22:08:10.685Z,2.13
2022-08-07T22:13:15.996Z,2.30
2022-08-07T22:18:25.507Z,1.90
2022-08-07T22:23:40.398Z,2.00
2022-08-07T22:28:53.358Z,2.00
2022-08-07T22:34:13.236Z,1.93
2022-08-07T22:39:28.331Z,2.60
2022-08-07T22:44:36.834Z,2.17
2022-08-07T22:50:10.851Z,2.50
2022-08-07T22:55:34.496Z,2.40
2022-08-07T23:00:46.985Z,1.90
2022-08-07T23:06:37.705Z,2.17
2022-08-07T23:11:59.387Z,2.23
2022-08-07T23:17:31.467Z,2.40
2022-08-07T23:22:52.289Z,2.27
2022-08-07T23:28:21.075Z,2.40
2022-08-07T23:34:35.852Z,2.40
2022-08-07T23:39:21.942Z,2.30
2022-08-07T23:44:41.866Z,2.43
2022-08-07T23:50:03.973Z,2.73
2022-08-07T23:55:53.449Z,2.50
